createdAt,value
2022-09-01T00:00:22.082Z,8.10
2022-09-01T00:02:51.475Z,8.05
2022-09-01T00:05:20.216Z,8.03
2022-09-01T00:07:50.458Z,7.98
2022-09-01T00:10:19.035Z,7.97
2022-09-01T00:12:47.700Z,7.96
2022-09-01T00:15:16.310Z,7.96
2022-09-01T00:17:44.993Z,7.94
2022-09-01T00:20:19.640Z,7.92
2022-09-01T00:22:50.525Z,7.92
2022-09-01T00:25:20.517Z,7.89
2022-09-01T00:27:49.821Z,7.87
2022-09-01T00:30:23.141Z,7.84
2022-09-01T00:32:51.742Z,7.81
2022-09-01T00:35:21.651Z,7.89
2022-09-01T00:37:51.703Z,7.94
2022-09-01T00:40:20.692Z,7.90
2022-09-01T00:42:50.362Z,7.83
2022-09-01T00:45:21.226Z,7.75
2022-09-01T00:47:51.738Z,7.69
2022-09-01T00:50:22.565Z,7.65
2022-09-01T00:52:56.699Z,7.58
2022-09-01T00:55:32.658Z,7.56
2022-09-01T00:58:03.475Z,7.55
2022-09-01T01:00:41.866Z,7.54
2022-09-01T01:05:23.500Z,7.52
2022-09-01T01:07:52.375Z,7.50
2022-09-01T01:10:25.263Z,7.45
2022-09-01T01:12:54.168Z,7.42
2022-09-01T01:15:22.984Z,7.43
2022-09-01T01:17:51.474Z,7.44
2022-09-01T01:20:44.677Z,7.44
2022-09-01T01:23:26.436Z,7.43
2022-09-01T01:26:00.069Z,7.34
2022-09-01T01:28:32.269Z,7.29
2022-09-01T01:31:06.257Z,7.26
2022-09-01T01:33:42.845Z,7.25
2022-09-01T01:36:16.167Z,7.20
2022-09-01T01:38:49.793Z,7.17
2022-09-01T01:41:22.238Z,7.17
2022-09-01T01:43:51.211Z,7.17
2022-09-01T01:46:20.764Z,7.13
2022-09-01T01:48:52.502Z,7.08
2022-09-01T01:51:25.131Z,7.04
2022-09-01T01:53:56.106Z,7.06
2022-09-01T01:56:26.446Z,7.00
2022-09-01T01:58:57.821Z,6.91
2022-09-01T02:01:30.242Z,6.87
2022-09-01T02:04:01.051Z,6.84
2022-09-01T02:06:30.402Z,6.80
2022-09-01T02:09:01.738Z,6.78
2022-09-01T02:11:34.025Z,6.72
2022-09-01T02:14:03.006Z,6.73
2022-09-01T02:16:34.309Z,6.73
2022-09-01T02:19:07.501Z,6.71
2022-09-01T02:21:36.204Z,6.70
2022-09-01T02:24:08.634Z,6.70
2022-09-01T02:26:50.528Z,6.65
2022-09-01T02:29:23.999Z,6.60
2022-09-01T02:31:55.107Z,6.55
2022-09-01T02:34:29.415Z,6.50
2022-09-01T02:36:59.494Z,6.47
2022-09-01T02:39:33.802Z,6.43
2022-09-01T02:42:04.045Z,6.40
2022-09-01T02:44:32.838Z,6.38
2022-09-01T02:47:02.184Z,6.37
2022-09-01T02:49:31.638Z,6.36
2022-09-01T02:52:02.939Z,6.35
2022-09-01T02:54:33.920Z,6.39
2022-09-01T02:57:04.692Z,6.40
2022-09-01T02:59:37.923Z,6.39
2022-09-01T03:05:25.550Z,6.39
2022-09-01T03:07:58.004Z,6.43
2022-09-01T03:10:33.817Z,6.50
2022-09-01T03:13:04.902Z,6.66
2022-09-01T03:15:34.673Z,6.67
2022-09-01T03:18:03.879Z,6.66
2022-09-01T03:20:37.385Z,6.60
2022-09-01T03:23:09.721Z,6.54
2022-09-01T03:25:39.016Z,6.48
2022-09-01T03:28:09.502Z,6.40
2022-09-01T03:30:40.519Z,6.35
2022-09-01T03:33:11.222Z,6.30
2022-09-01T03:35:42.077Z,6.26
2022-09-01T03:38:13.028Z,6.27
2022-09-01T03:40:42.546Z,6.22
2022-09-01T03:43:14.021Z,6.17
2022-09-01T03:45:43.589Z,6.13
2022-09-01T03:48:12.938Z,6.11
2022-09-01T03:50:46.300Z,6.13
2022-09-01T03:53:17.925Z,6.12
2022-09-01T03:55:49.114Z,6.12
2022-09-01T03:58:20.613Z,6.13
2022-09-01T04:00:56.275Z,6.13
2022-09-01T04:03:31.164Z,6.16
2022-09-01T04:06:03.683Z,6.12
2022-09-01T04:08:32.960Z,6.12
2022-09-01T04:11:05.638Z,6.11
2022-09-01T04:13:39.966Z,6.06
2022-09-01T04:16:38.171Z,6.15
2022-09-01T04:19:16.192Z,6.23
2022-09-01T04:21:47.095Z,6.26
2022-09-01T04:24:16.035Z,6.18
2022-09-01T04:26:48.308Z,6.13
2022-09-01T04:29:19.469Z,6.07
2022-09-01T04:31:53.743Z,6.03
2022-09-01T04:34:27.088Z,6.03
2022-09-01T04:36:59.075Z,6.05
2022-09-01T04:39:28.655Z,6.09
2022-09-01T04:41:57.254Z,6.15
2022-09-01T04:44:26.463Z,6.14
2022-09-01T04:46:55.796Z,6.15
2022-09-01T04:49:26.519Z,6.19
2022-09-01T04:51:56.959Z,6.21
2022-09-01T04:54:25.924Z,6.27
2022-09-01T04:56:55.174Z,6.30
2022-09-01T04:59:27.368Z,6.32
2022-09-01T05:05:31.015Z,6.40
2022-09-01T05:07:59.615Z,6.47
2022-09-01T05:10:30.225Z,6.54
2022-09-01T05:13:10.213Z,6.62
2022-09-01T05:15:43.095Z,6.71
2022-09-01T05:18:12.936Z,6.83
2022-09-01T05:20:44.305Z,6.96
2022-09-01T05:23:14.389Z,7.13
2022-09-01T05:25:46.032Z,7.37
2022-09-01T05:28:14.724Z,7.65
2022-09-01T05:30:46.860Z,8.00
2022-09-01T05:33:21.234Z,8.39
2022-09-01T05:36:00.508Z,8.79
2022-09-01T05:38:30.976Z,9.11
2022-09-01T05:41:03.958Z,9.48
2022-09-01T05:43:34.010Z,10.29
2022-09-01T05:46:07.666Z,11.38
2022-09-01T05:48:40.348Z,12.15
2022-09-01T05:51:40.345Z,12.41
2022-09-01T05:54:09.532Z,12.29
2022-09-01T05:56:44.904Z,11.96
2022-09-01T05:59:23.401Z,11.69
2022-09-01T06:01:54.332Z,11.54
2022-09-01T06:04:25.710Z,11.41
2022-09-01T06:07:06.672Z,11.29
2022-09-01T06:09:39.971Z,11.15
2022-09-01T06:12:18.361Z,11.15
2022-09-01T06:14:48.748Z,11.16
2022-09-01T06:17:19.690Z,11.24
2022-09-01T06:19:48.658Z,11.28
2022-09-01T06:22:19.157Z,11.60
2022-09-01T06:24:54.491Z,11.84
2022-09-01T06:27:24.342Z,12.10
2022-09-01T06:29:56.432Z,12.38
2022-09-01T06:32:26.234Z,12.64
2022-09-01T06:34:58.292Z,12.95
2022-09-01T06:37:29.037Z,13.46
2022-09-01T06:39:58.082Z,13.85
2022-09-01T06:42:26.782Z,13.89
2022-09-01T06:44:55.661Z,14.16
2022-09-01T06:47:24.347Z,14.70
2022-09-01T06:49:57.864Z,15.02
2022-09-01T06:52:28.466Z,17.03
2022-09-01T06:54:57.931Z,19.04
2022-09-01T07:00:21.230Z,22.94
2022-09-01T07:08:20.911Z,26.27
2022-09-01T07:16:51.835Z,27.98
2022-09-01T07:25:12.756Z,28.32
2022-09-01T07:27:50.641Z,28.40
2022-09-01T07:30:24.014Z,27.78
2022-09-01T07:32:53.948Z,28.17
2022-09-01T07:35:24.369Z,28.56
2022-09-01T07:38:48.181Z,28.63
2022-09-01T07:43:34.322Z,28.29
2022-09-01T07:51:51.027Z,28.24
2022-09-01T07:54:25.399Z,28.84
2022-09-01T07:56:54.898Z,28.23
2022-09-01T07:59:24.049Z,26.10
2022-09-01T08:01:52.915Z,25.45
2022-09-01T08:04:23.206Z,26.55
2022-09-01T08:06:52.013Z,28.03
2022-09-01T08:09:37.244Z,27.27
2022-09-01T08:12:08.817Z,27.55
2022-09-01T08:14:37.387Z,26.04
2022-09-01T08:17:17.669Z,23.33
2022-09-01T08:19:47.210Z,22.27
2022-09-01T08:22:16.351Z,21.16
2022-09-01T08:24:49.802Z,20.91
2022-09-01T08:27:19.538Z,20.75
2022-09-01T08:29:49.044Z,21.48
2022-09-01T08:32:17.806Z,21.74
2022-09-01T08:34:46.475Z,22.69
2022-09-01T08:37:15.049Z,22.06
2022-09-01T08:39:43.859Z,23.12
2022-09-01T08:42:30.045Z,24.97
2022-09-01T08:45:13.061Z,26.34
2022-09-01T08:47:58.586Z,25.82
2022-09-01T08:50:31.227Z,25.84
2022-09-01T08:53:12.306Z,26.12
2022-09-01T08:55:47.529Z,27.56
2022-09-01T08:58:19.793Z,27.88
2022-09-01T09:00:58.034Z,29.27
2022-09-01T09:05:40.289Z,27.23
2022-09-01T09:09:04.068Z,24.14
2022-09-01T09:12:08.840Z,25.48
2022-09-01T09:14:57.827Z,24.89
2022-09-01T09:17:34.644Z,25.83
2022-09-01T09:20:06.564Z,25.56
2022-09-01T09:22:36.497Z,26.50
2022-09-01T09:25:11.784Z,27.49
2022-09-01T09:27:43.566Z,26.71
2022-09-01T09:30:15.103Z,26.98
2022-09-01T09:35:42.329Z,28.63
2022-09-01T09:38:29.500Z,29.08
2022-09-01T09:41:20.630Z,28.84
2022-09-01T09:43:59.283Z,28.63
2022-09-01T09:46:37.813Z,27.60
2022-09-01T09:49:21.603Z,28.16
2022-09-01T09:52:19.321Z,28.14
2022-09-01T09:55:06.527Z,29.32
2022-09-01T09:57:42.276Z,29.79
2022-09-01T10:00:24.477Z,28.24
2022-09-01T10:03:07.809Z,27.53
2022-09-01T10:05:43.365Z,27.10
2022-09-01T10:08:16.689Z,26.37
2022-09-01T10:10:58.002Z,27.28
2022-09-01T10:13:31.422Z,27.85
2022-09-01T10:16:08.069Z,26.84
2022-09-01T10:18:41.728Z,26.05
2022-09-01T10:21:16.538Z,25.30
2022-09-01T10:23:45.737Z,24.54
2022-09-01T10:26:25.510Z,25.64
2022-09-01T10:29:00.199Z,25.65
2022-09-01T10:31:32.518Z,25.25
2022-09-01T10:34:06.316Z,25.41
2022-09-01T10:36:37.839Z,26.39
2022-09-01T10:39:12.818Z,26.30
2022-09-01T10:42:07.745Z,26.68
2022-09-01T10:44:39.080Z,24.80
2022-09-01T10:47:25.474Z,24.65
2022-09-01T10:50:10.242Z,24.29
2022-09-01T10:53:08.862Z,24.15
2022-09-01T10:55:46.562Z,24.92
2022-09-01T11:05:22.041Z,25.04
2022-09-01T11:08:00.574Z,25.92
2022-09-01T11:10:49.254Z,24.87
2022-09-01T11:13:49.586Z,25.15
2022-09-01T11:16:51.877Z,25.08
2022-09-01T11:19:38.356Z,24.54
2022-09-01T11:22:19.034Z,23.98
2022-09-01T11:25:26.676Z,24.00
2022-09-01T11:28:25.783Z,23.80
2022-09-01T11:31:00.767Z,23.56
2022-09-01T11:33:46.426Z,24.19
2022-09-01T11:36:25.627Z,23.77
2022-09-01T11:39:07.681Z,23.66
2022-09-01T11:41:57.455Z,24.30
2022-09-01T11:44:39.791Z,24.97
2022-09-01T11:47:18.411Z,25.16
2022-09-01T11:50:08.065Z,24.93
2022-09-01T11:52:41.602Z,24.86
2022-09-01T11:55:12.591Z,24.66
2022-09-01T11:57:42.586Z,24.96
2022-09-01T12:00:14.767Z,25.12
2022-09-01T12:02:48.018Z,24.87
2022-09-01T12:05:33.629Z,23.61
2022-09-01T12:08:06.695Z,24.70
2022-09-01T12:10:40.334Z,25.63
2022-09-01T12:13:12.460Z,25.81
2022-09-01T12:16:00.761Z,25.05
2022-09-01T12:18:35.212Z,24.80
2022-09-01T12:21:08.105Z,23.65
2022-09-01T12:23:40.413Z,24.29
2022-09-01T12:26:15.936Z,24.51
2022-09-01T12:28:46.217Z,25.05
2022-09-01T12:31:19.992Z,25.18
2022-09-01T12:33:49.987Z,25.63
2022-09-01T12:36:29.756Z,25.84
2022-09-01T12:39:25.396Z,25.05
2022-09-01T12:42:07.676Z,25.57
2022-09-01T12:44:48.411Z,24.59
2022-09-01T12:47:51.639Z,25.57
2022-09-01T12:50:44.910Z,25.88
2022-09-01T12:53:30.733Z,25.65
2022-09-01T12:56:31.388Z,25.09
2022-09-01T12:59:15.461Z,25.30
2022-09-01T13:01:46.130Z,25.24
2022-09-01T13:05:32.787Z,25.05
2022-09-01T13:08:08.769Z,25.86
2022-09-01T13:10:43.187Z,26.36
2022-09-01T13:13:14.160Z,26.49
2022-09-01T13:15:48.370Z,26.34
2022-09-01T13:18:17.378Z,25.81
2022-09-01T13:20:47.401Z,26.30
2022-09-01T13:23:17.375Z,25.75
2022-09-01T13:25:46.786Z,26.25
2022-09-01T13:28:17.367Z,26.90
2022-09-01T13:31:28.553Z,26.98
2022-09-01T13:36:51.766Z,26.06
2022-09-01T13:39:22.740Z,26.62
2022-09-01T13:41:51.574Z,26.85
2022-09-01T13:44:20.736Z,26.36
2022-09-01T13:49:44.922Z,26.61
2022-09-01T13:52:30.804Z,26.11
2022-09-01T13:54:59.448Z,26.71
2022-09-01T13:57:28.180Z,25.84
2022-09-01T14:00:07.873Z,26.78
2022-09-01T14:02:36.972Z,27.09
2022-09-01T14:05:07.072Z,27.52
2022-09-01T14:07:37.314Z,27.77
2022-09-01T14:10:07.757Z,27.14
2022-09-01T14:12:37.549Z,27.44
2022-09-01T14:15:13.871Z,26.49
2022-09-01T14:17:45.589Z,27.01
2022-09-01T14:20:19.558Z,27.33
2022-09-01T14:22:51.470Z,27.44
2022-09-01T14:25:21.863Z,26.95
2022-09-01T14:27:53.460Z,26.43
2022-09-01T14:30:29.172Z,25.79
2022-09-01T14:33:01.161Z,25.67
2022-09-01T14:35:33.828Z,26.30
2022-09-01T14:38:06.505Z,25.51
2022-09-01T14:40:39.837Z,26.36
2022-09-01T14:43:12.831Z,26.84
2022-09-01T14:45:44.803Z,26.92
2022-09-01T14:48:17.168Z,27.90
2022-09-01T14:50:51.247Z,28.24
2022-09-01T14:53:22.710Z,28.06
2022-09-01T14:55:55.507Z,28.92
2022-09-01T14:58:26.689Z,28.37
2022-09-01T15:01:03.470Z,28.17
2022-09-01T15:05:23.602Z,28.16
2022-09-01T15:07:52.984Z,28.46
2022-09-01T15:10:26.092Z,28.51
2022-09-01T15:13:01.830Z,28.52
2022-09-01T15:15:31.899Z,28.50
2022-09-01T15:18:04.907Z,29.54
2022-09-01T15:20:47.010Z,29.71
2022-09-01T15:23:19.721Z,29.35
2022-09-01T15:25:56.538Z,27.95
2022-09-01T15:28:26.920Z,28.02
2022-09-01T15:31:00.549Z,28.69
2022-09-01T15:33:29.492Z,26.77
2022-09-01T15:35:59.432Z,27.35
2022-09-01T15:38:30.676Z,28.09
2022-09-01T15:41:01.772Z,28.68
2022-09-01T15:43:33.302Z,28.36
2022-09-01T15:46:05.973Z,28.11
2022-09-01T15:48:35.678Z,28.71
2022-09-01T15:51:33.262Z,28.68
2022-09-01T15:54:06.267Z,29.29
2022-09-01T15:56:35.950Z,29.95
2022-09-01T15:59:08.901Z,29.95
2022-09-01T16:01:41.347Z,28.02
2022-09-01T16:04:19.069Z,28.06
2022-09-01T16:06:51.064Z,28.12
2022-09-01T16:09:22.239Z,27.86
2022-09-01T16:11:50.736Z,27.82
2022-09-01T16:14:20.813Z,26.66
2022-09-01T16:17:03.470Z,26.91
2022-09-01T16:19:44.000Z,27.55
2022-09-01T16:22:24.399Z,27.05
2022-09-01T16:24:57.920Z,27.24
2022-09-01T16:27:34.361Z,27.13
2022-09-01T16:30:08.228Z,27.18
2022-09-01T16:32:39.400Z,27.30
2022-09-01T16:35:20.962Z,26.96
2022-09-01T16:38:03.463Z,27.28
2022-09-01T16:40:45.229Z,26.61
2022-09-01T16:43:28.430Z,25.84
2022-09-01T16:46:09.261Z,25.41
2022-09-01T16:48:48.337Z,25.56
2022-09-01T16:51:31.587Z,25.19
2022-09-01T16:54:24.981Z,24.86
2022-09-01T16:57:05.079Z,24.19
2022-09-01T16:59:52.008Z,24.10
2022-09-01T17:05:31.228Z,24.40
2022-09-01T17:08:12.630Z,24.68
2022-09-01T17:10:49.173Z,24.61
2022-09-01T17:13:23.232Z,24.34
2022-09-01T17:16:02.754Z,23.74
2022-09-01T17:18:39.109Z,23.32
2022-09-01T17:21:19.536Z,22.88
2022-09-01T17:24:12.530Z,23.06
2022-09-01T17:26:47.889Z,23.09
2022-09-01T17:29:24.753Z,22.65
2022-09-01T17:32:04.803Z,22.70
2022-09-01T17:34:47.096Z,22.52
2022-09-01T17:37:33.128Z,21.67
2022-09-01T17:40:18.926Z,20.83
2022-09-01T17:42:55.590Z,19.93
2022-09-01T17:45:32.381Z,18.50
2022-09-01T17:48:14.322Z,17.87
2022-09-01T17:51:04.895Z,17.33
2022-09-01T17:53:47.819Z,16.96
2022-09-01T17:56:47.486Z,16.60
2022-09-01T17:59:29.374Z,16.34
2022-09-01T18:02:23.679Z,16.14
2022-09-01T18:05:10.776Z,16.00
2022-09-01T18:08:05.502Z,15.88
2022-09-01T18:10:42.444Z,15.72
2022-09-01T18:13:30.941Z,15.60
2022-09-01T18:16:17.404Z,15.43
2022-09-01T18:18:51.190Z,15.34
2022-09-01T18:21:25.832Z,15.26
2022-09-01T18:24:07.119Z,15.13
2022-09-01T18:26:42.700Z,14.98
2022-09-01T18:29:12.078Z,14.87
2022-09-01T18:32:24.123Z,14.84
2022-09-01T18:35:27.589Z,14.76
2022-09-01T18:38:17.049Z,14.66
2022-09-01T18:41:05.671Z,14.63
2022-09-01T18:43:44.118Z,14.67
2022-09-01T18:46:29.534Z,14.62
2022-09-01T18:49:09.575Z,14.49
2022-09-01T18:51:58.216Z,14.33
2022-09-01T18:54:35.874Z,14.19
2022-09-01T18:57:08.033Z,14.09
2022-09-01T19:00:09.900Z,13.93
2022-09-01T19:05:59.997Z,13.68
2022-09-01T19:08:48.555Z,13.56
2022-09-01T19:11:32.796Z,13.42
2022-09-01T19:14:19.194Z,13.35
2022-09-01T19:17:08.772Z,13.28
2022-09-01T19:19:47.699Z,13.24
2022-09-01T19:22:25.136Z,13.21
2022-09-01T19:25:33.461Z,13.12
2022-09-01T19:28:10.595Z,12.92
2022-09-01T19:30:50.854Z,12.77
2022-09-01T19:33:27.916Z,12.68
2022-09-01T19:36:03.884Z,12.56
2022-09-01T19:38:39.885Z,12.42
2022-09-01T19:41:30.523Z,12.30
2022-09-01T19:44:10.216Z,12.12
2022-09-01T19:46:54.264Z,11.97
2022-09-01T19:49:38.627Z,11.81
2022-09-01T19:52:19.574Z,11.65
2022-09-01T19:55:02.424Z,11.49
2022-09-01T19:57:40.893Z,11.35
2022-09-01T20:00:19.406Z,11.25
2022-09-01T20:03:01.362Z,11.17
2022-09-01T20:05:41.436Z,11.08
2022-09-01T20:08:21.280Z,10.99
2022-09-01T20:11:05.361Z,10.94
2022-09-01T20:14:06.674Z,10.91
2022-09-01T20:16:42.005Z,10.87
2022-09-01T20:19:17.281Z,10.81
2022-09-01T20:21:49.364Z,10.76
2022-09-01T20:24:33.092Z,10.68
2022-09-01T20:27:15.780Z,10.58
2022-09-01T20:29:55.982Z,10.48
2022-09-01T20:32:34.963Z,10.34
2022-09-01T20:35:15.874Z,10.19
2022-09-01T20:37:50.915Z,10.05
2022-09-01T20:40:27.296Z,9.97
2022-09-01T20:43:18.668Z,9.96
2022-09-01T20:45:47.971Z,9.89
2022-09-01T20:48:20.708Z,9.87
2022-09-01T20:51:00.021Z,9.83
2022-09-01T20:53:52.403Z,9.86
2022-09-01T20:56:35.011Z,9.76
2022-09-01T20:59:17.438Z,9.66
2022-09-01T21:05:41.401Z,9.40
2022-09-01T21:08:34.183Z,9.30
2022-09-01T21:11:30.496Z,9.27
2022-09-01T21:14:31.667Z,9.33
2022-09-01T21:17:14.599Z,9.28
2022-09-01T21:20:02.754Z,9.33
2022-09-01T21:22:32.998Z,9.33
2022-09-01T21:25:01.963Z,9.32
2022-09-01T21:27:37.038Z,9.28
2022-09-01T21:30:09.891Z,9.22
2022-09-01T21:32:39.829Z,9.10
2022-09-01T21:35:12.689Z,9.04
2022-09-01T21:37:42.836Z,8.95
2022-09-01T21:40:13.523Z,8.82
2022-09-01T21:42:54.584Z,8.72
2022-09-01T21:45:24.862Z,8.72
2022-09-01T21:47:54.797Z,8.74
2022-09-01T21:50:26.067Z,8.74
2022-09-01T21:52:56.013Z,8.68
2022-09-01T21:55:25.429Z,8.61
2022-09-01T21:57:54.989Z,8.67
2022-09-01T22:00:27.684Z,8.62
2022-09-01T22:02:58.152Z,8.52
2022-09-01T22:05:27.930Z,8.47
2022-09-01T22:07:59.019Z,8.43
2022-09-01T22:10:31.583Z,8.42
2022-09-01T22:13:04.142Z,8.40
2022-09-01T22:15:32.877Z,8.38
2022-09-01T22:18:01.452Z,8.36
2022-09-01T22:20:32.152Z,8.32
2022-09-01T22:23:03.714Z,8.20
2022-09-01T22:25:34.971Z,8.06
2022-09-01T22:28:07.150Z,7.96
2022-09-01T22:30:36.682Z,7.90
2022-09-01T22:33:07.798Z,7.84
2022-09-01T22:35:40.691Z,7.79
2022-09-01T22:38:10.973Z,7.76
2022-09-01T22:40:46.328Z,7.79
2022-09-01T22:43:17.893Z,7.78
2022-09-01T22:45:48.286Z,7.77
2022-09-01T22:48:18.845Z,7.68
2022-09-01T22:50:49.345Z,7.62
2022-09-01T22:53:22.933Z,7.55
2022-09-01T22:55:53.159Z,7.47
2022-09-01T22:58:22.376Z,7.48
2022-09-01T23:00:56.005Z,7.44
2022-09-01T23:05:22.358Z,7.49
2022-09-01T23:07:51.307Z,7.43
2022-09-01T23:10:19.884Z,7.40
2022-09-01T23:12:48.510Z,7.41
2022-09-01T23:15:17.614Z,7.34
2022-09-01T23:17:46.464Z,7.30
2022-09-01T23:20:16.633Z,7.23
2022-09-01T23:22:47.456Z,7.15
2022-09-01T23:25:18.250Z,7.11
2022-09-01T23:27:47.182Z,7.05
2022-09-01T23:30:17.338Z,7.07
2022-09-01T23:32:46.037Z,7.17
2022-09-01T23:35:15.345Z,7.12
2022-09-01T23:37:46.452Z,7.05
2022-09-01T23:40:15.189Z,7.06
2022-09-01T23:42:44.026Z,7.00
2022-09-01T23:45:14.162Z,6.97
2022-09-01T23:47:43.196Z,6.94
2022-09-01T23:50:12.695Z,6.87
2022-09-01T23:52:41.212Z,6.80
2022-09-01T23:55:11.850Z,6.74
2022-09-01T23:57:40.635Z,6.71
